Cainsville, Missouri
Current Conditions -  °F | °C
As of 9:26 AM on Thursday 23 Oct 2014 (Local Time) from KLWD Reporting Station
Light Rain Light Rain  
Wind Chill: 56°   Ceiling: 8000
Heat Index: 56°   Visibility: 10mi
Dew Point: 54°   Wind: 8mph
Humidity: 93%   Direction: 210°SSW
Pressure: 30.06"   Gusts: NA
Location:  40.44°N, 93.78°W
Report Text: KLWD 231426Z AUTO 21007KT 10SM -RA FEW006 BKN080 13/12 A3006 RMK AO2 P0000 T01330122
Loading
Personal Weather Stations






























Interactive Weather Map
Tropical Storm Tracking
New forecast layout! Learn more

10-Day Weather Forecast

Advertisements
Track Severe Weather on mobile